Terminal Aerodrome Forecast
Issued by NWS

Home | Current Version | Previous Version | Text Only | Print | Product List | Glossary On
Versions: 1 2 3 4 5 6 7 8 9 10 11 12 13 14 15 16 17 18
549
FTAK31 PAJN 241134
TAFAJN
TAF
PAJN 241134Z 2412/2512 10008KT 6SM -SN SCT006 OVC025
      TEMPO 2412/2415 VRB05KT 3/4SM -SN BR BKN006 OVC025
     FM241800 VRB05KT 5SM -SN BKN025 OVC035
     FM250100 09005KT P6SM VCSH OVC040
     FM250600 09012KT 5SM -SN OVC030 WS015/06035KT=

USA.gov is the U.S. government's official web portal to all federal, state and local government web resources and services.